createdAt,value
2023-10-10T00:01:12.330Z,97427.13
2023-10-10T00:03:41.793Z,97422.84
2023-10-10T00:06:15.210Z,97423.56
2023-10-10T00:08:44.415Z,97431.22
2023-10-10T00:11:16.190Z,97436.25
2023-10-10T00:13:44.385Z,97428.47
2023-10-10T00:16:25.110Z,97436.84
2023-10-10T00:18:52.332Z,97435.94
2023-10-10T00:21:24.939Z,97440.19
2023-10-10T00:23:54.743Z,97447.06
2023-10-10T00:26:23.530Z,97444.56
2023-10-10T00:28:59.366Z,97439.38
2023-10-10T00:31:29.016Z,97457.09
2023-10-10T00:33:56.776Z,97453.56
2023-10-10T00:36:34.965Z,97460.22
2023-10-10T00:39:12.008Z,97462.63
2023-10-10T00:41:52.954Z,97454.72
2023-10-10T00:44:20.883Z,97463.34
2023-10-10T00:46:56.735Z,97457.28
2023-10-10T00:49:26.947Z,97459.84
2023-10-10T00:51:57.078Z,97463.97
2023-10-10T00:54:27.005Z,97458.94
2023-10-10T00:56:57.750Z,97460.66
2023-10-10T00:59:46.312Z,97464.06
2023-10-10T01:02:18.210Z,97466.56
2023-10-10T01:04:55.231Z,97475.06
2023-10-10T01:07:23.451Z,97472.66
2023-10-10T01:09:57.951Z,97470.94
2023-10-10T01:12:37.333Z,97482.97
2023-10-10T01:15:18.417Z,97480.41
2023-10-10T01:17:46.504Z,97479.59
2023-10-10T01:20:19.856Z,97483.91
2023-10-10T01:22:50.052Z,97479.72
2023-10-10T01:25:36.955Z,97482.28
2023-10-10T01:28:16.394Z,97489.13
2023-10-10T01:30:56.153Z,97489.13
2023-10-10T01:33:36.825Z,97498.69
2023-10-10T01:36:13.057Z,97490.22
2023-10-10T01:38:45.608Z,97497.91
2023-10-10T01:41:25.940Z,97497.75
2023-10-10T01:43:56.327Z,97489.91
2023-10-10T01:46:29.960Z,97495.72
2023-10-10T01:48:58.403Z,97501.59
2023-10-10T01:51:26.326Z,97509.19
2023-10-10T01:53:56.844Z,97505.59
2023-10-10T01:56:25.063Z,97506.38
2023-10-10T01:58:55.273Z,97505.50
2023-10-10T02:01:25.567Z,97509.63
2023-10-10T02:03:55.027Z,97518.22
2023-10-10T02:06:45.616Z,97517.34
2023-10-10T02:09:20.481Z,97523.97
2023-10-10T02:11:57.580Z,97513.47
2023-10-10T02:14:26.652Z,97519.38
2023-10-10T02:16:57.146Z,97527.00
2023-10-10T02:19:32.887Z,97529.56
2023-10-10T02:22:46.216Z,97538.09
2023-10-10T02:25:28.428Z,97535.41
2023-10-10T02:27:57.850Z,97534.53
2023-10-10T02:30:39.487Z,97538.69
2023-10-10T02:33:15.816Z,97537.09
2023-10-10T02:35:56.651Z,97545.66
2023-10-10T02:38:33.511Z,97543.97
2023-10-10T02:41:26.125Z,97539.50
2023-10-10T02:44:06.486Z,97546.19
2023-10-10T02:46:39.989Z,97552.84
2023-10-10T02:49:23.990Z,97560.44
2023-10-10T02:51:57.102Z,97564.56
2023-10-10T02:54:27.426Z,97567.84
2023-10-10T02:57:21.949Z,97572.03
2023-10-10T02:59:52.927Z,97568.50
2023-10-10T03:02:42.700Z,97575.38
2023-10-10T03:05:17.646Z,97575.41
2023-10-10T03:07:52.473Z,97577.06
2023-10-10T03:10:24.192Z,97583.97
2023-10-10T03:12:53.006Z,97588.78
2023-10-10T03:15:21.301Z,97590.34
2023-10-10T03:17:57.930Z,97588.69
2023-10-10T03:20:45.436Z,97587.03
2023-10-10T03:23:15.717Z,97592.78
2023-10-10T03:25:46.430Z,97594.56
2023-10-10T03:28:36.134Z,97598.81
2023-10-10T03:31:12.318Z,97595.47
2023-10-10T03:33:42.428Z,97605.13
2023-10-10T03:36:21.325Z,97603.34
2023-10-10T03:38:53.151Z,97609.41
2023-10-10T03:41:24.544Z,97610.22
2023-10-10T03:44:17.983Z,97608.56
2023-10-10T03:46:57.953Z,97612.06
2023-10-10T03:49:44.728Z,97608.63
2023-10-10T03:52:30.586Z,97605.88
2023-10-10T03:55:16.968Z,97613.75
2023-10-10T03:58:03.809Z,97616.44
2023-10-10T04:00:49.708Z,97622.47
2023-10-10T04:03:35.778Z,97628.50
2023-10-10T04:06:26.478Z,97637.03
2023-10-10T04:09:12.156Z,97642.25
2023-10-10T04:11:58.105Z,97640.63
2023-10-10T04:14:44.109Z,97646.59
2023-10-10T04:17:30.285Z,97651.09
2023-10-10T04:20:16.118Z,97637.31
2023-10-10T04:23:02.176Z,97651.09
2023-10-10T04:25:47.965Z,97650.22
2023-10-10T04:28:33.696Z,97657.09
2023-10-10T04:31:24.706Z,97661.53
2023-10-10T04:34:11.080Z,97672.03
2023-10-10T04:36:57.088Z,97677.97
2023-10-10T04:39:43.001Z,97681.50
2023-10-10T04:42:28.710Z,97681.63
2023-10-10T04:45:14.815Z,97693.72
2023-10-10T04:48:00.921Z,97697.94
2023-10-10T04:50:47.012Z,97698.00
2023-10-10T04:53:32.840Z,97696.31
2023-10-10T04:56:18.654Z,97709.06
2023-10-10T04:59:04.475Z,97708.25
2023-10-10T05:01:50.406Z,97707.97
2023-10-10T05:04:36.189Z,97707.94
2023-10-10T05:07:22.007Z,97715.50
2023-10-10T05:10:07.822Z,97711.28
2023-10-10T05:12:53.679Z,97714.72
2023-10-10T05:15:39.418Z,97716.63
2023-10-10T05:18:25.337Z,97716.63
2023-10-10T05:21:14.887Z,97719.28
2023-10-10T05:23:49.264Z,97714.28
2023-10-10T05:26:21.244Z,97723.03
2023-10-10T05:28:48.813Z,97734.88
2023-10-10T05:31:23.028Z,97736.56
2023-10-10T05:33:52.365Z,97737.53
2023-10-10T05:36:20.139Z,97741.09
2023-10-10T05:38:49.629Z,97737.59
2023-10-10T05:41:20.587Z,97746.22
2023-10-10T05:43:51.435Z,97737.75
2023-10-10T05:46:18.957Z,97742.19
2023-10-10T05:48:48.028Z,97750.84
2023-10-10T05:51:15.598Z,97748.44
2023-10-10T05:53:43.165Z,97749.25
2023-10-10T05:56:17.956Z,97756.22
2023-10-10T05:58:46.116Z,97753.66
2023-10-10T06:01:15.195Z,97759.38
2023-10-10T06:03:46.246Z,97763.53
2023-10-10T06:06:15.328Z,97767.84
2023-10-10T06:08:43.791Z,97773.69
2023-10-10T06:11:15.694Z,97770.22
2023-10-10T06:13:45.856Z,97779.63
2023-10-10T06:16:17.008Z,97781.84
2023-10-10T06:18:48.983Z,97786.00
2023-10-10T06:21:16.725Z,97789.47
2023-10-10T06:23:46.245Z,97788.03
2023-10-10T06:26:14.372Z,97786.56
2023-10-10T06:28:49.290Z,97784.09
2023-10-10T06:31:21.566Z,97796.13
2023-10-10T06:33:52.974Z,97794.63
2023-10-10T06:36:24.226Z,97801.59
2023-10-10T06:39:03.389Z,97801.72
2023-10-10T06:41:37.514Z,97798.47
2023-10-10T06:44:05.882Z,97799.41
2023-10-10T06:46:38.630Z,97807.25
2023-10-10T06:49:06.246Z,97811.25
2023-10-10T06:51:41.447Z,97804.41
2023-10-10T06:54:29.745Z,97804.56
2023-10-10T06:57:01.081Z,97808.22
2023-10-10T06:59:30.512Z,97815.34
2023-10-10T07:02:15.330Z,97814.69
2023-10-10T07:04:43.238Z,97814.75
2023-10-10T07:07:12.306Z,97814.16
2023-10-10T07:09:43.862Z,97822.88
2023-10-10T07:12:11.948Z,97822.28
2023-10-10T07:14:48.324Z,97825.91
2023-10-10T07:17:16.195Z,97820.06
2023-10-10T07:20:03.149Z,97823.41
2023-10-10T07:22:36.339Z,97826.13
2023-10-10T07:25:11.565Z,97824.47
2023-10-10T07:27:41.421Z,97824.38
2023-10-10T07:30:12.359Z,97829.75
2023-10-10T07:32:44.483Z,97835.78
2023-10-10T07:35:16.586Z,97835.06
2023-10-10T07:37:47.785Z,97837.91
2023-10-10T07:40:19.347Z,97837.13
2023-10-10T07:42:51.838Z,97832.19
2023-10-10T07:45:29.636Z,97839.16
2023-10-10T07:48:00.258Z,97833.41
2023-10-10T07:50:57.485Z,97842.22
2023-10-10T07:53:35.053Z,97845.84
2023-10-10T07:56:02.928Z,97848.25
2023-10-10T07:58:53.409Z,97846.22
2023-10-10T08:01:22.586Z,97851.34
2023-10-10T08:03:49.873Z,97853.13
2023-10-10T08:06:20.327Z,97861.47
2023-10-10T08:08:57.623Z,97857.50
2023-10-10T08:11:37.540Z,97868.59
2023-10-10T08:14:10.073Z,97859.28
2023-10-10T08:16:43.264Z,97864.72
2023-10-10T08:19:12.259Z,97865.75
2023-10-10T08:21:50.660Z,97873.00
2023-10-10T08:24:21.628Z,97873.03
2023-10-10T08:26:53.040Z,97876.03
2023-10-10T08:29:27.710Z,97872.19
2023-10-10T08:31:55.337Z,97870.38
2023-10-10T08:34:22.642Z,97878.84
2023-10-10T08:36:53.479Z,97877.75
2023-10-10T08:39:26.758Z,97882.88
2023-10-10T08:41:54.689Z,97888.66
2023-10-10T08:44:23.363Z,97893.06
2023-10-10T08:46:55.402Z,97899.44
2023-10-10T08:49:22.900Z,97895.00
2023-10-10T08:51:54.241Z,97906.31
2023-10-10T08:54:22.671Z,97908.19
2023-10-10T08:57:04.084Z,97903.88
2023-10-10T08:59:33.447Z,97905.69
2023-10-10T09:02:19.192Z,97905.09
2023-10-10T09:04:47.048Z,97915.03
2023-10-10T09:07:28.636Z,97913.88
2023-10-10T09:10:31.939Z,97911.09
2023-10-10T09:13:02.585Z,97908.94
2023-10-10T09:15:31.964Z,97906.41
2023-10-10T09:18:16.774Z,97911.50
2023-10-10T09:20:48.967Z,97910.56
2023-10-10T09:23:24.270Z,97911.84
2023-10-10T09:26:20.936Z,97910.25
2023-10-10T09:29:05.149Z,97913.16
2023-10-10T09:31:34.118Z,97913.06
2023-10-10T09:34:04.971Z,97918.28
2023-10-10T09:36:39.846Z,97918.34
2023-10-10T09:39:11.384Z,97920.91
2023-10-10T09:42:01.115Z,97915.66
2023-10-10T09:44:56.586Z,97922.84
2023-10-10T09:47:43.762Z,97909.19
2023-10-10T09:50:24.094Z,97908.88
2023-10-10T09:52:59.723Z,97921.97
2023-10-10T09:55:33.640Z,97929.44
2023-10-10T09:58:02.547Z,97922.84
2023-10-10T10:00:40.162Z,97929.00
2023-10-10T10:03:28.052Z,97931.75
2023-10-10T10:06:00.149Z,97930.19
2023-10-10T10:09:10.484Z,97931.00
2023-10-10T10:12:20.914Z,97934.13
2023-10-10T10:15:03.976Z,97940.28
2023-10-10T10:17:50.708Z,97949.75
2023-10-10T10:20:28.801Z,97943.69
2023-10-10T10:23:01.034Z,97953.22
2023-10-10T10:25:37.467Z,97952.13
2023-10-10T10:28:12.814Z,97954.81
2023-10-10T10:30:52.146Z,97960.84
2023-10-10T10:33:24.904Z,97956.56
2023-10-10T10:36:00.317Z,97954.91
2023-10-10T10:38:27.997Z,97969.44
2023-10-10T10:41:18.384Z,97977.31
2023-10-10T10:43:52.526Z,97974.72
2023-10-10T10:46:29.621Z,97971.97
2023-10-10T10:49:07.059Z,97982.53
2023-10-10T10:51:43.466Z,97980.94
2023-10-10T10:54:30.898Z,97980.16
2023-10-10T10:57:04.728Z,97979.34
2023-10-10T10:59:46.642Z,97986.31
2023-10-10T11:02:30.178Z,97988.28
2023-10-10T11:04:58.785Z,97992.16
2023-10-10T11:07:42.717Z,97995.63
2023-10-10T11:10:11.410Z,97975.97
2023-10-10T11:12:38.752Z,97985.63
2023-10-10T11:15:12.626Z,97993.47
2023-10-10T11:17:41.554Z,98000.84
2023-10-10T11:20:31.351Z,97998.34
2023-10-10T11:23:15.911Z,98004.00
2023-10-10T11:25:47.095Z,98007.47
2023-10-10T11:28:23.507Z,98009.28
2023-10-10T11:30:52.761Z,98007.69
2023-10-10T11:33:47.577Z,98005.75
2023-10-10T11:36:31.362Z,98008.19
2023-10-10T11:39:16.449Z,98012.56
2023-10-10T11:41:47.008Z,98011.59
2023-10-10T11:44:20.433Z,98012.31
2023-10-10T11:46:50.238Z,98020.81
2023-10-10T11:49:17.986Z,98017.09
2023-10-10T11:51:46.840Z,98025.78
2023-10-10T11:54:14.564Z,98027.56
2023-10-10T11:56:42.094Z,98027.34
2023-10-10T11:59:12.051Z,98024.53
2023-10-10T12:02:09.001Z,98031.16
2023-10-10T12:04:39.081Z,98035.75
2023-10-10T12:07:07.778Z,98037.41
2023-10-10T12:09:36.263Z,98036.22
2023-10-10T12:12:04.789Z,98033.66
2023-10-10T12:14:33.511Z,98041.06
2023-10-10T12:17:06.987Z,98046.00
2023-10-10T12:19:38.866Z,98051.09
2023-10-10T12:22:12.226Z,98052.09
2023-10-10T12:24:43.311Z,98054.56
2023-10-10T12:27:11.401Z,98045.91
2023-10-10T12:29:42.483Z,98055.22
2023-10-10T12:32:17.519Z,98049.34
2023-10-10T12:34:47.397Z,98059.41
2023-10-10T12:37:16.953Z,98061.06
2023-10-10T12:39:50.847Z,98065.38
2023-10-10T12:42:18.444Z,98065.41
2023-10-10T12:44:50.053Z,98074.16
2023-10-10T12:47:19.283Z,98061.28
2023-10-10T12:49:47.235Z,98070.72
2023-10-10T12:52:19.393Z,98078.41
2023-10-10T12:54:48.583Z,98071.53
2023-10-10T12:57:15.780Z,98074.09
2023-10-10T12:59:49.931Z,98078.53
2023-10-10T13:02:18.064Z,98079.41
2023-10-10T13:04:49.825Z,98087.91
2023-10-10T13:07:17.960Z,98080.06
2023-10-10T13:09:48.157Z,98092.00
2023-10-10T13:12:29.185Z,98098.72
2023-10-10T13:15:16.685Z,98093.44
2023-10-10T13:18:10.842Z,98094.06
2023-10-10T13:20:39.997Z,98103.41
2023-10-10T13:23:08.205Z,98098.19
2023-10-10T13:25:39.309Z,98104.19
2023-10-10T13:28:10.875Z,98107.66
2023-10-10T13:30:40.559Z,98113.53
2023-10-10T13:33:08.405Z,98104.19
2023-10-10T13:35:39.046Z,98110.19
2023-10-10T13:38:08.871Z,98109.50
2023-10-10T13:40:47.156Z,98115.47
2023-10-10T13:43:18.787Z,98117.25
2023-10-10T13:45:49.524Z,98124.09
2023-10-10T13:48:22.621Z,98128.28
2023-10-10T13:50:52.871Z,98126.56
2023-10-10T13:53:21.903Z,98123.03
2023-10-10T13:55:50.177Z,98129.75
2023-10-10T13:58:18.291Z,98139.22
2023-10-10T14:00:57.520Z,98141.94
2023-10-10T14:03:36.687Z,98148.75
2023-10-10T14:06:13.945Z,98160.81
2023-10-10T14:08:49.017Z,98155.03
2023-10-10T14:11:24.497Z,98147.28
2023-10-10T14:13:56.247Z,98155.09
2023-10-10T14:16:24.971Z,98146.56
2023-10-10T14:18:52.510Z,98155.13
2023-10-10T14:21:28.869Z,98157.75
2023-10-10T14:24:06.245Z,98155.13
2023-10-10T14:26:35.710Z,98160.16
2023-10-10T14:29:07.924Z,98156.56
2023-10-10T14:31:44.419Z,98162.56
2023-10-10T14:34:22.139Z,98165.69
2023-10-10T14:36:53.622Z,98178.25
2023-10-10T14:39:37.677Z,98176.41
2023-10-10T14:42:06.105Z,98175.38
2023-10-10T14:44:33.583Z,98181.31
2023-10-10T14:47:04.309Z,98182.06
2023-10-10T14:49:40.331Z,98184.28
2023-10-10T14:52:08.448Z,98184.72
2023-10-10T14:54:39.505Z,98189.16
2023-10-10T14:57:08.094Z,98192.50
2023-10-10T14:59:37.196Z,98200.72
2023-10-10T15:02:05.704Z,98197.81
2023-10-10T15:04:35.272Z,98198.34
2023-10-10T15:07:05.896Z,98194.56
2023-10-10T15:09:36.983Z,98204.97
2023-10-10T15:12:04.813Z,98201.66
2023-10-10T15:14:35.853Z,98201.78
2023-10-10T15:17:06.473Z,98199.91
2023-10-10T15:19:35.186Z,98207.78
2023-10-10T15:22:02.534Z,98207.84
2023-10-10T15:24:32.837Z,98215.63
2023-10-10T15:27:01.333Z,98212.31
2023-10-10T15:29:29.360Z,98214.22
2023-10-10T15:32:04.327Z,98221.13
2023-10-10T15:34:32.381Z,98220.44
2023-10-10T15:37:01.796Z,98220.47
2023-10-10T15:39:29.274Z,98233.28
2023-10-10T15:41:56.871Z,98240.91
2023-10-10T15:44:24.020Z,98236.72
2023-10-10T15:46:55.849Z,98236.69
2023-10-10T15:49:36.203Z,98245.22
2023-10-10T15:52:06.336Z,98248.59
2023-10-10T15:54:37.006Z,98245.06
2023-10-10T15:57:07.745Z,98251.81
2023-10-10T15:59:35.248Z,98251.00
2023-10-10T16:02:02.831Z,98253.38
2023-10-10T16:04:30.143Z,98249.91
2023-10-10T16:06:59.639Z,98257.47
2023-10-10T16:09:33.119Z,98254.97
2023-10-10T16:12:00.799Z,98260.16
2023-10-10T16:14:28.220Z,98265.38
2023-10-10T16:16:56.742Z,98262.94
2023-10-10T16:19:27.316Z,98266.41
2023-10-10T16:22:02.690Z,98269.75
2023-10-10T16:24:30.862Z,98274.81
2023-10-10T16:27:00.670Z,98269.50
2023-10-10T16:29:37.226Z,98273.63
2023-10-10T16:32:10.735Z,98271.91
2023-10-10T16:34:46.625Z,98271.91
2023-10-10T16:37:17.927Z,98269.34
2023-10-10T16:39:47.424Z,98277.69
2023-10-10T16:42:21.873Z,98273.38
2023-10-10T16:44:50.459Z,98287.03
2023-10-10T16:47:18.861Z,98281.91
2023-10-10T16:49:51.222Z,98278.44
2023-10-10T16:52:27.882Z,98285.28
2023-10-10T16:54:57.675Z,98287.56
2023-10-10T16:57:26.214Z,98285.88
2023-10-10T16:59:57.553Z,98289.25
2023-10-10T17:02:30.548Z,98286.75
2023-10-10T17:05:02.198Z,98289.44
2023-10-10T17:12:05.398Z,98296.72
2023-10-10T17:18:44.072Z,98298.69
2023-10-10T17:21:16.018Z,98306.59
2023-10-10T17:23:44.095Z,98298.03
2023-10-10T17:26:12.276Z,98309.28
2023-10-10T17:28:41.461Z,98303.44
2023-10-10T17:31:09.953Z,98314.56
2023-10-10T17:33:41.912Z,98315.53
2023-10-10T17:36:09.926Z,98314.72
2023-10-10T17:38:37.312Z,98314.78
2023-10-10T17:41:06.722Z,98323.22
2023-10-10T17:43:33.881Z,98322.34
2023-10-10T17:46:01.710Z,98324.03
2023-10-10T17:48:32.218Z,98322.22
2023-10-10T17:51:02.540Z,98327.19
2023-10-10T17:53:32.671Z,98328.59
2023-10-10T17:56:01.287Z,98333.00
2023-10-10T17:58:28.787Z,98336.44
2023-10-10T18:00:57.594Z,98338.06
2023-10-10T18:03:25.203Z,98332.88
2023-10-10T18:05:53.396Z,98333.88
2023-10-10T18:08:21.493Z,98339.75
2023-10-10T18:10:48.931Z,98344.06
2023-10-10T18:13:15.987Z,98338.13
2023-10-10T18:15:48.372Z,98341.50
2023-10-10T18:18:17.454Z,98346.63
2023-10-10T18:20:44.785Z,98343.88
2023-10-10T18:23:13.677Z,98349.13
2023-10-10T18:25:41.417Z,98351.75
2023-10-10T18:28:09.777Z,98354.41
2023-10-10T18:30:38.613Z,98355.28
2023-10-10T18:33:13.118Z,98352.53
2023-10-10T18:36:08.539Z,98356.88
2023-10-10T18:38:36.059Z,98355.78
2023-10-10T18:41:04.798Z,98360.09
2023-10-10T18:43:33.246Z,98368.78
2023-10-10T18:46:06.605Z,98361.91
2023-10-10T18:48:38.629Z,98372.09
2023-10-10T18:51:13.673Z,98371.22
2023-10-10T18:53:41.989Z,98368.47
2023-10-10T18:56:10.038Z,98371.97
2023-10-10T18:58:41.676Z,98376.97
2023-10-10T19:01:11.398Z,98372.63
2023-10-10T19:03:48.603Z,98378.41
2023-10-10T19:06:19.876Z,98381.84
2023-10-10T19:08:50.468Z,98384.28
2023-10-10T19:11:18.641Z,98389.47
2023-10-10T19:13:50.713Z,98376.59
2023-10-10T19:16:19.234Z,98386.09
2023-10-10T19:18:47.111Z,98392.97
2023-10-10T19:21:19.109Z,98388.53
2023-10-10T19:23:54.475Z,98382.44
2023-10-10T19:26:23.742Z,98387.31
2023-10-10T19:28:58.945Z,98392.25
2023-10-10T19:31:27.009Z,98392.28
2023-10-10T19:38:30.390Z,98397.00
2023-10-10T19:41:07.496Z,98405.41
2023-10-10T19:43:38.238Z,98397.00
2023-10-10T19:46:11.969Z,98400.34
2023-10-10T19:48:43.974Z,98397.88
2023-10-10T19:51:19.640Z,98395.22
2023-10-10T19:53:54.468Z,98402.03
2023-10-10T19:56:22.659Z,98402.03
2023-10-10T19:58:50.247Z,98406.34
2023-10-10T20:01:18.992Z,98410.56
2023-10-10T20:03:47.459Z,98406.28
2023-10-10T20:06:22.827Z,98416.53
2023-10-10T20:08:53.676Z,98407.75
2023-10-10T20:11:23.126Z,98411.41
2023-10-10T20:13:50.712Z,98413.75
2023-10-10T20:16:20.457Z,98411.31
2023-10-10T20:18:49.275Z,98418.31
2023-10-10T20:21:18.019Z,98419.09
2023-10-10T20:23:46.743Z,98414.94
2023-10-10T20:26:20.560Z,98420.06
2023-10-10T20:28:49.702Z,98420.94
2023-10-10T20:31:23.160Z,98425.25
2023-10-10T20:33:52.133Z,98427.06
2023-10-10T20:36:20.073Z,98429.53
2023-10-10T20:38:51.862Z,98428.13
2023-10-10T20:41:20.916Z,98424.63
2023-10-10T20:43:48.325Z,98438.50
2023-10-10T20:46:20.402Z,98428.28
2023-10-10T20:48:49.334Z,98439.47
2023-10-10T20:51:17.045Z,98436.72
2023-10-10T20:53:47.136Z,98440.66
2023-10-10T20:56:16.561Z,98436.28
2023-10-10T20:58:43.851Z,98443.94
2023-10-10T21:01:15.622Z,98442.16
2023-10-10T21:03:43.556Z,98442.00
2023-10-10T21:06:13.338Z,98443.91
2023-10-10T21:08:41.557Z,98451.44
2023-10-10T21:11:12.605Z,98446.25
2023-10-10T21:13:40.158Z,98449.69
2023-10-10T21:16:17.176Z,98460.84
2023-10-10T21:18:46.974Z,98456.63
2023-10-10T21:21:15.645Z,98464.38
2023-10-10T21:23:44.271Z,98462.78
2023-10-10T21:26:15.286Z,98462.88
2023-10-10T21:28:43.488Z,98461.38
2023-10-10T21:31:12.073Z,98466.19
2023-10-10T21:33:42.064Z,98475.44
2023-10-10T21:36:09.964Z,98476.19
2023-10-10T21:38:37.427Z,98481.22
2023-10-10T21:41:06.147Z,98477.19
2023-10-10T21:43:33.881Z,98474.47
2023-10-10T21:46:01.304Z,98484.56
2023-10-10T21:48:31.356Z,98489.56
2023-10-10T21:51:00.875Z,98487.91
2023-10-10T21:53:28.868Z,98493.00
2023-10-10T21:55:59.771Z,98488.94
2023-10-10T21:58:30.053Z,98483.13
2023-10-10T22:00:57.194Z,98497.53
2023-10-10T22:03:24.527Z,98499.66
2023-10-10T22:05:52.243Z,98497.84
2023-10-10T22:08:19.571Z,98496.69
2023-10-10T22:10:46.794Z,98503.38
2023-10-10T22:13:16.448Z,98511.09
2023-10-10T22:15:43.880Z,98509.41
2023-10-10T22:18:13.030Z,98506.88
2023-10-10T22:20:43.488Z,98505.66
2023-10-10T22:23:10.851Z,98512.31
2023-10-10T22:25:38.518Z,98517.28
2023-10-10T22:28:06.329Z,98516.50
2023-10-10T22:30:39.907Z,98512.00
2023-10-10T22:33:12.572Z,98518.88
2023-10-10T22:35:40.927Z,98518.78
2023-10-10T22:38:12.512Z,98516.91
2023-10-10T22:40:40.276Z,98520.25
2023-10-10T22:43:07.536Z,98518.63
2023-10-10T22:45:36.566Z,98521.28
2023-10-10T22:48:07.041Z,98518.78
2023-10-10T22:50:35.387Z,98524.78
2023-10-10T22:53:04.432Z,98531.38
2023-10-10T22:55:35.184Z,98524.72
2023-10-10T22:58:08.669Z,98523.88
2023-10-10T23:00:40.514Z,98535.88
2023-10-10T23:03:14.288Z,98534.19
2023-10-10T23:05:44.493Z,98538.94
2023-10-10T23:08:13.111Z,98545.97
2023-10-10T23:10:44.781Z,98540.56
2023-10-10T23:13:14.439Z,98550.78
2023-10-10T23:15:41.630Z,98547.34
2023-10-10T23:18:12.311Z,98547.44
2023-10-10T23:20:42.949Z,98554.22
2023-10-10T23:23:12.957Z,98554.88
2023-10-10T23:25:40.758Z,98563.53
2023-10-10T23:28:09.918Z,98561.75
2023-10-10T23:30:40.829Z,98569.47
2023-10-10T23:33:13.185Z,98557.72
2023-10-10T23:35:42.122Z,98560.50
2023-10-10T23:38:10.860Z,98561.16
2023-10-10T23:40:47.364Z,98561.75
2023-10-10T23:43:22.929Z,98569.38
2023-10-10T23:46:10.077Z,98562.78
2023-10-10T23:48:38.227Z,98567.88
2023-10-10T23:51:08.611Z,98573.75
2023-10-10T23:53:40.372Z,98573.66
2023-10-10T23:56:09.241Z,98580.66
2023-10-10T23:58:36.668Z,98581.59
